Time;durP1;ratioP1;P1;durP2;ratioP2;P2;SDS_P1;SDS_P2;PMS_P1;PMS_P2;Temp;Humidity;BMP_temperature;BMP_pressure;BME280_temperature;BME280_humidity;BME280_pressure;Samples;Min_cycle;Max_cycle;Signal;HPM_P1;HPM_P2
2021/08/07 00:01:25;;;;;;;22.50;10.90;;;;;;;18.21;84.75;98517.30;130109;1090;22732;-60
2021/08/07 00:03:53;;;;;;;14.33;11.05;;;;;;;18.21;84.86;98522.81;130144;1090;22753;-60
2021/08/07 00:06:25;;;;;;;14.88;10.78;;;;;;;18.19;85.17;98520.38;130033;1090;113859;-60
2021/08/07 00:08:54;;;;;;;21.08;11.15;;;;;;;18.19;84.96;98525.08;130099;1090;22539;-60
2021/08/07 00:11:21;;;;;;;13.58;10.80;;;;;;;18.19;85.06;98525.08;129971;1090;114506;-60
2021/08/07 00:13:48;;;;;;;12.35;10.03;;;;;;;18.12;84.98;98517.35;130105;1090;22601;-60
2021/08/07 00:16:16;;;;;;;15.08;11.75;;;;;;;18.17;84.83;98530.95;129987;1088;114020;-60
2021/08/07 00:18:44;;;;;;;12.08;10.53;;;;;;;18.18;84.99;98542.80;130085;1090;22552;-60
2021/08/07 00:21:12;;;;;;;15.45;10.73;;;;;;;18.16;84.73;98554.16;130115;1089;22506;-60
2021/08/07 00:23:39;;;;;;;13.60;10.40;;;;;;;18.13;84.71;98559.52;130012;1090;113516;-60
2021/08/07 00:26:07;;;;;;;16.38;10.73;;;;;;;18.12;84.57;98560.65;130079;1089;22537;-60
2021/08/07 00:28:34;;;;;;;11.55;10.43;;;;;;;18.11;84.82;98559.03;129985;1088;114366;-60
2021/08/07 00:31:02;;;;;;;10.85;9.43;;;;;;;18.10;84.55;98555.47;130064;1090;22609;-60
2021/08/07 00:33:29;;;;;;;10.20;9.20;;;;;;;18.09;84.89;98558.55;130122;1090;22588;-60
2021/08/07 00:35:57;;;;;;;14.40;9.90;;;;;;;18.09;84.63;98555.80;129937;1090;114410;-60
2021/08/07 00:38:25;;;;;;;14.43;10.55;;;;;;;18.09;84.89;98564.88;130107;1088;22616;-60
2021/08/07 00:40:52;;;;;;;11.18;9.40;;;;;;;18.07;84.78;98563.58;129994;1090;114350;-58
2021/08/07 00:43:20;;;;;;;12.65;9.45;;;;;;;18.06;84.50;98568.28;130048;1090;22536;-58
2021/08/07 00:45:49;;;;;;;12.18;9.08;;;;;;;18.05;84.45;98571.37;130062;1090;22677;-58
2021/08/07 00:48:20;;;;;;;13.33;10.00;;;;;;;18.03;84.57;98570.91;129983;1090;113904;-58
2021/08/07 00:50:52;;;;;;;14.93;8.95;;;;;;;17.99;84.69;98574.33;130096;1090;22612;-58
2021/08/07 00:53:22;;;;;;;13.78;10.00;;;;;;;17.98;84.25;98577.41;129953;1090;114294;-58
2021/08/07 00:55:51;;;;;;;12.33;9.18;;;;;;;17.95;84.60;98573.36;130114;1090;22545;-58
2021/08/07 00:58:19;;;;;;;11.77;9.60;;;;;;;17.92;84.55;98574.01;129958;1091;114579;-58
2021/08/07 01:00:49;;;;;;;11.35;10.05;;;;;;;17.89;84.28;98566.39;130080;1090;22556;-58
2021/08/07 01:03:39;;;;;;;12.83;9.43;;;;;;;17.87;84.43;98567.89;130095;1090;22625;-58
2021/08/07 01:06:10;;;;;;;11.65;9.58;;;;;;;17.86;84.44;98575.34;129982;1093;113996;-58
2021/08/07 01:08:40;;;;;;;12.83;9.58;;;;;;;17.84;84.38;98579.56;130043;1090;23413;-58
2021/08/07 01:11:19;;;;;;;10.95;9.05;;;;;;;17.81;84.49;98581.02;129974;1090;114153;-57
2021/08/07 01:13:50;;;;;;;11.08;9.60;;;;;;;17.76;84.29;98583.13;130093;1090;22560;-57
2021/08/07 01:16:31;;;;;;;12.88;9.70;;;;;;;17.74;84.36;98585.43;129860;1090;114268;-57
2021/08/07 01:19:13;;;;;;;13.10;9.50;;;;;;;17.70;84.52;98577.00;129923;1092;22634;-57
2021/08/07 01:21:44;;;;;;;10.53;8.50;;;;;;;17.69;84.82;98585.59;130056;1090;22533;-57
2021/08/07 01:24:42;;;;;;;8.68;7.68;;;;;;;17.68;85.04;98587.53;129965;1090;113724;-57
2021/08/07 01:27:23;;;;;;;10.10;7.40;;;;;;;17.68;84.98;98593.05;130051;1090;22571;-58
2021/08/07 01:29:54;;;;;;;8.70;7.65;;;;;;;17.69;85.10;98593.86;129954;1090;113974;-58
2021/08/07 01:32:26;;;;;;;9.45;7.93;;;;;;;17.69;85.02;98591.10;130095;1090;22587;-58
2021/08/07 01:34:54;;;;;;;10.23;7.23;;;;;;;17.69;84.87;98596.61;129966;1090;113605;-58
2021/08/07 01:37:23;;;;;;;8.78;7.28;;;;;;;17.69;84.86;98591.10;130043;1090;23331;-58
2021/08/07 01:40:01;;;;;;;8.55;6.93;;;;;;;17.69;84.61;98594.67;130027;1090;22638;-58
2021/08/07 01:42:38;;;;;;;10.38;6.80;;;;;;;17.70;84.75;98589.97;129979;1090;113543;-58
2021/08/07 01:45:08;;;;;;;7.55;6.70;;;;;;;17.68;84.65;98587.53;130100;1090;23499;-58
2021/08/07 01:47:41;;;;;;;8.10;7.30;;;;;;;17.69;84.45;98594.67;130017;1092;113646;-58
2021/08/07 01:50:22;;;;;;;7.98;7.13;;;;;;;17.71;84.39;98592.40;130072;1090;22581;-58
2021/08/07 01:52:52;;;;;;;14.15;7.48;;;;;;;17.72;84.50;98598.72;129961;1090;113272;-58
2021/08/07 01:55:39;;;;;;;8.45;6.85;;;;;;;17.71;84.37;98600.66;130045;1089;22525;-58
2021/08/07 01:58:12;;;;;;;7.43;6.50;;;;;;;17.70;84.16;98606.50;130118;1090;22592;-58
2021/08/07 02:00:41;;;;;;;8.90;7.40;;;;;;;17.69;83.97;98613.95;129988;1090;114075;-58
2021/08/07 02:03:09;;;;;;;8.05;6.10;;;;;;;17.66;83.65;98618.16;130072;1090;22669;-58
2021/08/07 02:05:38;;;;;;;6.53;5.88;;;;;;;17.64;82.98;98630.64;129947;1090;114457;-58
2021/08/07 02:08:07;;;;;;;8.23;6.33;;;;;;;17.60;82.56;98632.42;130082;1090;22597;-59
2021/08/07 02:10:42;;;;;;;9.20;5.53;;;;;;;17.58;82.47;98629.17;129953;1088;114362;-59
2021/08/07 02:13:12;;;;;;;9.48;5.83;;;;;;;17.57;82.23;98628.36;130079;1090;22580;-59
2021/08/07 02:15:52;;;;;;;13.90;6.08;;;;;;;17.57;82.12;98631.12;130026;1090;22551;-58
2021/08/07 02:18:26;;;;;;;7.88;6.15;;;;;;;17.58;82.18;98634.69;129933;1090;115051;-59
2021/08/07 02:20:54;;;;;;;7.50;5.38;;;;;;;17.58;82.01;98637.44;130054;1090;22624;-58
2021/08/07 02:23:22;;;;;;;7.40;6.25;;;;;;;17.59;81.81;98641.81;129992;1090;114278;-58
2021/08/07 02:27:12;;;;;;;7.73;6.25;;;;;;;17.58;81.78;98640.19;125697;1090;22766;-58
2021/08/07 02:29:41;;;;;;;10.20;6.63;;;;;;;17.56;81.81;98636.95;125375;1091;113906;-60
2021/08/07 02:32:12;;;;;;;11.38;7.15;;;;;;;17.55;81.92;98640.84;125151;1093;22806;-59
2021/08/07 02:34:46;;;;;;;8.08;6.80;;;;;;;17.52;81.87;98641.48;125120;1093;114273;-59
2021/08/07 02:37:21;;;;;;;8.33;7.53;;;;;;;17.49;82.10;98636.62;129721;1092;23727;-60
2021/08/07 02:39:50;;;;;;;8.93;7.30;;;;;;;17.46;82.18;98637.26;129775;1093;22545;-59
2021/08/07 02:42:20;;;;;;;10.40;7.08;;;;;;;17.45;82.44;98646.69;129664;1093;113575;-59
2021/08/07 02:44:49;;;;;;;8.48;7.60;;;;;;;17.43;82.44;98649.76;129765;1093;22557;-59
2021/08/07 02:47:21;;;;;;;7.85;6.63;;;;;;;17.43;82.42;98655.27;129698;1092;113987;-59
2021/08/07 02:49:51;;;;;;;9.25;7.25;;;;;;;17.42;82.53;98653.64;129805;1093;23377;-59
2021/08/07 02:52:21;;;;;;;8.95;7.78;;;;;;;17.40;82.39;98658.66;129694;1093;113735;-58
2021/08/07 02:54:50;;;;;;;9.30;7.60;;;;;;;17.38;82.61;98660.92;129762;1093;22569;-57
2021/08/07 02:57:20;;;;;;;8.18;7.18;;;;;;;17.36;82.43;98656.87;129748;1093;23272;-59
2021/08/07 02:59:52;;;;;;;10.80;7.03;;;;;;;17.34;82.49;98662.70;129683;1093;113703;-60
2021/08/07 03:02:21;;;;;;;8.95;6.93;;;;;;;17.32;82.64;98668.52;129811;1093;22544;-60
2021/08/07 03:04:51;;;;;;;8.13;6.85;;;;;;;17.32;82.33;98675.97;129665;1093;115467;-59
2021/08/07 03:07:40;;;;;;;10.58;6.35;;;;;;;17.29;82.01;98669.19;129767;1093;22684;-59
2021/08/07 03:10:10;;;;;;;10.48;6.65;;;;;;;17.28;81.91;98680.52;129742;1093;23164;-59
2021/08/07 03:12:44;;;;;;;8.18;6.35;;;;;;;17.25;81.88;98692.98;129731;1093;113683;-59
2021/08/07 03:15:13;;;;;;;8.10;6.08;;;;;;;17.22;81.77;98701.07;129847;1093;22558;-62
2021/08/07 03:17:43;;;;;;;7.90;6.20;;;;;;;17.21;81.58;98704.95;129735;1093;113891;-60
2021/08/07 03:20:13;;;;;;;7.65;6.35;;;;;;;17.20;81.57;98700.58;129837;1092;22716;-59
2021/08/07 03:22:43;;;;;;;13.25;6.75;;;;;;;17.20;81.35;98698.64;129680;1091;114349;-59
2021/08/07 03:25:17;;;;;;;7.38;6.50;;;;;;;17.19;81.31;98702.52;129771;1093;23515;-59
2021/08/07 03:27:46;;;;;;;9.95;6.83;;;;;;;17.19;81.23;98697.02;129799;1093;23355;-57
2021/08/07 03:30:18;;;;;;;6.95;5.50;;;;;;;17.20;81.33;98701.39;129715;1093;113965;-60
2021/08/07 03:32:48;;;;;;;11.15;5.93;;;;;;;17.21;81.21;98705.77;129747;1093;22556;-59
2021/08/07 03:35:17;;;;;;;10.50;6.00;;;;;;;17.22;80.98;98703.83;129814;1093;113662;-59
2021/08/07 03:37:46;;;;;;;9.73;6.10;;;;;;;17.24;81.20;98707.07;129799;1093;22547;-58
2021/08/07 03:40:16;;;;;;;8.85;6.08;;;;;;;17.25;80.80;98720.52;127727;1093;22771;-59
2021/08/07 03:42:47;;;;;;;7.95;7.03;;;;;;;17.27;80.78;98718.26;129686;1093;113213;-60
2021/08/07 03:45:19;;;;;;;6.23;5.45;;;;;;;17.28;80.42;98719.88;129819;1093;22562;-59
2021/08/07 03:47:51;;;;;;;7.68;5.30;;;;;;;17.29;80.26;98717.94;129695;1093;113669;-57
2021/08/07 03:50:24;;;;;;;9.73;5.15;;;;;;;17.30;80.10;98714.88;129877;1092;22563;-58
2021/08/07 03:52:53;;;;;;;5.10;4.23;;;;;;;17.31;79.64;98723.94;129671;1093;113794;-57
2021/08/07 03:55:22;;;;;;;4.63;4.20;;;;;;;17.30;79.35;98723.13;129798;1093;22563;-59
2021/08/07 03:57:55;;;;;;;4.58;4.18;;;;;;;17.31;79.05;98716.46;129802;1093;22552;-57
2021/08/07 04:00:36;;;;;;;5.13;4.63;;;;;;;17.32;78.58;98706.26;129630;1093;113697;-59
2021/08/07 04:03:07;;;;;;;5.23;3.38;;;;;;;17.34;78.30;98706.75;129818;1092;22702;-60
2021/08/07 04:05:36;;;;;;;5.58;4.60;;;;;;;17.35;78.47;98711.13;129707;1093;113766;-60
2021/08/07 04:08:10;;;;;;;6.90;4.43;;;;;;;17.39;78.05;98711.30;129787;1093;23029;-58
2021/08/07 04:10:42;;;;;;;5.40;3.70;;;;;;;17.44;77.92;98702.89;129701;1093;113885;-60
2021/08/07 04:13:13;;;;;;;5.50;4.20;;;;;;;17.48;77.92;98712.11;129802;1093;22564;-59
2021/08/07 04:16:03;;;;;;;6.90;4.08;;;;;;;17.51;77.57;98705.96;129789;1092;22746;-59
2021/08/07 04:18:48;;;;;;;5.73;4.48;;;;;;;17.56;77.73;98716.83;129668;1092;113263;-59
2021/08/07 04:21:18;;;;;;;5.43;4.88;;;;;;;17.60;77.91;98723.32;129752;1092;22608;-61
2021/08/07 04:23:48;;;;;;;4.58;4.08;;;;;;;17.65;77.61;98725.92;129690;1093;113441;-59
2021/08/07 04:26:16;;;;;;;5.50;3.90;;;;;;;17.69;77.35;98723.34;129777;1092;22591;-60
2021/08/07 04:28:46;;;;;;;4.75;4.25;;;;;;;17.71;77.14;98721.08;129657;1092;115303;-60
2021/08/07 04:31:16;;;;;;;6.85;4.60;;;;;;;17.71;76.60;98716.38;129808;1092;22573;-57
2021/08/07 04:33:45;;;;;;;5.03;3.95;;;;;;;17.73;76.33;98722.38;129744;1092;22515;-57
2021/08/07 04:36:15;;;;;;;7.23;4.30;;;;;;;17.75;76.23;98722.03;129678;1092;113776;-57
2021/08/07 04:38:44;;;;;;;5.43;4.20;;;;;;;17.78;75.95;98724.14;129826;1093;23361;-58
2021/08/07 04:41:13;;;;;;;4.93;4.20;;;;;;;17.79;75.89;98728.52;129650;1093;113621;-58
2021/08/07 04:43:42;;;;;;;7.40;4.50;;;;;;;17.81;75.64;98723.50;129826;1092;22562;-57
2021/08/07 04:46:13;;;;;;;6.38;4.00;;;;;;;17.83;75.17;98723.98;129781;1093;22564;-57
2021/08/07 04:48:43;;;;;;;5.20;3.95;;;;;;;17.85;75.04;98725.29;129660;1093;113635;-58
2021/08/07 04:51:16;;;;;;;4.93;3.85;;;;;;;17.91;74.98;98736.94;129771;1093;22569;-57
2021/08/07 04:53:45;;;;;;;5.35;4.23;;;;;;;17.98;75.50;98731.76;129644;1093;113696;-57
2021/08/07 04:56:19;;;;;;;6.03;3.53;;;;;;;18.11;75.28;98727.20;129728;1093;22552;-57
2021/08/07 04:58:48;;;;;;;5.63;4.38;;;;;;;18.27;74.41;98731.06;130013;1090;113178;-58
2021/08/07 05:01:20;;;;;;;5.90;3.83;;;;;;;18.52;74.02;98734.88;130158;1090;22614;-58
2021/08/07 05:03:50;;;;;;;4.28;3.33;;;;;;;18.79;73.29;98734.48;130132;1089;22530;-58
2021/08/07 05:06:20;;;;;;;5.28;3.95;;;;;;;19.08;71.98;98728.98;129950;1090;114924;-58
2021/08/07 05:09:02;;;;;;;5.05;3.58;;;;;;;19.38;71.07;98718.73;130210;1090;22632;-58
2021/08/07 05:11:36;;;;;;;3.65;3.35;;;;;;;19.77;70.00;98719.44;130035;1090;113908;-58
2021/08/07 05:14:06;;;;;;;2.98;2.50;;;;;;;20.16;68.79;98715.35;130139;1090;22544;-58
2021/08/07 05:16:36;;;;;;;3.53;2.58;;;;;;;20.51;66.94;98704.73;130080;1088;113975;-58
2021/08/07 05:19:05;;;;;;;4.68;2.75;;;;;;;20.79;66.37;98708.45;130441;1089;25141;-58
2021/08/07 05:21:35;;;;;;;3.20;2.65;;;;;;;21.11;65.44;98706.73;130155;1089;22541;-58
2021/08/07 05:24:04;;;;;;;4.80;2.75;;;;;;;21.47;63.79;98713.42;130034;1090;113442;-58
2021/08/07 05:26:33;;;;;;;3.65;2.30;;;;;;;21.78;62.53;98726.63;130184;1090;22606;-58
2021/08/07 05:29:02;;;;;;;3.65;2.58;;;;;;;22.11;61.64;98734.73;130388;1089;113708;-58
2021/08/07 05:31:34;;;;;;;3.93;2.73;;;;;;;22.42;60.48;98722.90;130184;1090;22769;-58
2021/08/07 05:34:03;;;;;;;3.95;2.78;;;;;;;22.64;59.07;98727.06;130182;1090;23296;-58
2021/08/07 05:36:32;;;;;;;3.58;2.50;;;;;;;22.79;58.84;98731.84;130055;1090;113627;-58
2021/08/07 05:39:01;;;;;;;3.93;2.33;;;;;;;22.96;58.31;98723.13;130161;1090;22622;-58
2021/08/07 05:41:37;;;;;;;4.88;2.30;;;;;;;23.13;57.75;98738.63;129978;1090;113532;-58
2021/08/07 05:44:08;;;;;;;3.95;2.55;;;;;;;23.32;57.05;98724.80;130136;1089;22565;-58
2021/08/07 05:46:38;;;;;;;4.93;2.50;;;;;;;23.55;56.60;98733.28;130009;1090;113514;-58
2021/08/07 05:49:07;;;;;;;3.28;2.15;;;;;;;23.78;56.59;98750.09;130084;1090;23342;-58
2021/08/07 05:51:36;;;;;;;3.85;2.78;;;;;;;23.96;56.00;98737.34;130162;1089;23493;-59
2021/08/07 05:54:05;;;;;;;3.65;3.10;;;;;;;24.08;55.18;98737.23;130054;1089;113918;-58
2021/08/07 05:56:35;;;;;;;3.73;2.80;;;;;;;24.14;54.70;98746.88;130450;1090;22547;-59
2021/08/07 05:59:04;;;;;;;3.53;3.23;;;;;;;24.13;54.93;98741.67;130088;1090;114217;-58
2021/08/07 06:01:35;;;;;;;3.58;3.20;;;;;;;24.11;54.40;98736.47;130222;1090;22543;-58
2021/08/07 06:04:04;;;;;;;5.55;2.68;;;;;;;24.05;55.18;98745.50;130357;1089;22522;-58
2021/08/07 06:06:33;;;;;;;4.90;2.68;;;;;;;23.95;54.81;98744.08;130229;1090;113540;-59
2021/08/07 06:09:02;;;;;;;4.95;3.18;;;;;;;23.84;54.58;98757.77;130087;1090;23360;-58
2021/08/07 06:11:31;;;;;;;4.00;3.30;;;;;;;23.69;54.28;98755.85;129955;1089;113973;-58
2021/08/07 06:14:01;;;;;;;3.33;2.55;;;;;;;23.45;54.30;98751.31;130035;1090;22593;-58
2021/08/07 06:16:31;;;;;;;3.50;3.20;;;;;;;23.21;55.06;98745.98;129920;1090;113738;-58
2021/08/07 06:19:13;;;;;;;3.75;2.78;;;;;;;22.96;55.98;98752.88;130059;1090;22531;-58
2021/08/07 06:21:43;;;;;;;4.00;3.00;;;;;;;22.78;56.22;98750.48;130089;1090;22538;-58
2021/08/07 06:24:12;;;;;;;3.25;2.95;;;;;;;22.58;56.51;98754.27;129961;1091;113903;-58
2021/08/07 06:26:46;;;;;;;5.38;3.13;;;;;;;22.42;56.83;98750.66;130023;1090;22573;-58
2021/08/07 06:29:15;;;;;;;3.53;3.05;;;;;;;22.26;57.33;98752.58;129968;1089;113080;-58
2021/08/07 06:31:43;;;;;;;3.33;3.03;;;;;;;22.13;57.79;98757.38;130081;1090;23461;-58
2021/08/07 06:34:12;;;;;;;5.98;3.38;;;;;;;22.02;58.23;98756.27;130069;1090;22574;-58
2021/08/07 06:36:41;;;;;;;4.20;3.18;;;;;;;21.95;59.10;98751.28;129956;1090;114387;-58
2021/08/07 06:39:10;;;;;;;6.30;2.95;;;;;;;21.91;59.36;98760.67;129949;1090;22529;-57
2021/08/07 06:41:40;;;;;;;7.23;3.20;;;;;;;21.87;59.57;98761.38;130039;1090;114088;-58
2021/08/07 06:44:14;;;;;;;3.08;2.78;;;;;;;21.80;59.41;98763.11;130144;1090;22576;-58
2021/08/07 06:46:43;;;;;;;3.20;2.90;;;;;;;21.73;59.52;98768.46;130086;1090;113832;-58
2021/08/07 06:49:12;;;;;;;4.50;3.40;;;;;;;21.61;59.88;98751.86;130201;1090;22532;-60
2021/08/07 06:51:41;;;;;;;5.28;2.90;;;;;;;21.55;59.92;98765.14;130143;1090;22518;-58
2021/08/07 06:54:10;;;;;;;4.38;3.48;;;;;;;21.46;59.87;98753.38;129980;1089;113767;-57
2021/08/07 06:56:39;;;;;;;3.20;2.90;;;;;;;21.40;60.45;98763.88;130009;1090;22625;-58
2021/08/07 06:59:08;;;;;;;3.75;3.45;;;;;;;21.34;60.65;98775.56;129664;1093;117726;-59
2021/08/07 07:01:38;;;;;;;4.73;2.95;;;;;;;21.27;60.90;98776.13;130070;1090;22554;-58
2021/08/07 07:04:08;;;;;;;5.65;3.30;;;;;;;21.22;60.90;98765.27;130042;1089;22611;-58
2021/08/07 07:06:37;;;;;;;3.10;2.80;;;;;;;21.17;60.49;98780.16;129911;1090;113977;-59
2021/08/07 07:09:10;;;;;;;3.30;2.98;;;;;;;21.10;60.27;98779.91;130024;1091;23624;-58
2021/08/07 07:11:40;;;;;;;5.85;3.40;;;;;;;21.04;60.93;98772.19;129899;1090;113683;-59
2021/08/07 07:14:09;;;;;;;5.10;3.00;;;;;;;20.99;60.90;98770.44;130051;1090;22598;-59
2021/08/07 07:16:38;;;;;;;3.58;3.23;;;;;;;20.97;61.06;98771.94;129966;1090;113795;-58
2021/08/07 07:19:08;;;;;;;4.20;3.80;;;;;;;20.92;61.07;98783.25;130055;1090;22567;-59
2021/08/07 07:21:37;;;;;;;4.30;3.13;;;;;;;20.89;61.50;98778.40;130065;1090;22645;-58
2021/08/07 07:24:06;;;;;;;6.40;3.40;;;;;;;20.88;60.79;98790.63;129951;1093;114315;-58
2021/08/07 07:26:35;;;;;;;8.20;3.45;;;;;;;20.86;60.81;98792.92;130162;1089;22705;-58
2021/08/07 07:29:06;;;;;;;6.05;3.23;;;;;;;20.86;60.88;98793.73;129965;1090;114376;-58
2021/08/07 07:31:35;;;;;;;6.68;3.43;;;;;;;20.87;61.35;98795.35;130133;1090;22625;-58
2021/08/07 07:34:04;;;;;;;4.25;3.85;;;;;;;20.89;62.00;98781.98;130099;1090;23198;-58
2021/08/07 07:36:34;;;;;;;5.73;3.08;;;;;;;20.92;60.91;98791.56;129984;1090;113797;-58
2021/08/07 07:39:06;;;;;;;5.65;3.38;;;;;;;20.95;60.31;98793.63;130109;1090;22706;-56
2021/08/07 07:41:36;;;;;;;6.95;3.68;;;;;;;20.96;60.54;98786.93;129971;1089;114027;-58
2021/08/07 07:44:06;;;;;;;3.20;2.85;;;;;;;20.98;60.10;98790.17;130137;1090;22602;-58
2021/08/07 07:46:35;;;;;;;4.83;3.63;;;;;;;21.01;60.73;98783.95;130090;1089;113851;-58
2021/08/07 07:49:05;;;;;;;3.15;2.85;;;;;;;21.06;60.83;98792.05;130112;1089;22575;-58
2021/08/07 07:51:35;;;;;;;5.38;3.18;;;;;;;21.09;60.89;98792.14;130084;1090;22654;-57
2021/08/07 07:54:05;;;;;;;5.68;3.13;;;;;;;21.14;60.40;98794.69;129995;1089;113990;-58
2021/08/07 07:56:34;;;;;;;3.20;2.88;;;;;;;21.19;60.39;98802.00;130167;1089;23231;-58
2021/08/07 07:59:04;;;;;;;6.35;2.90;;;;;;;21.21;59.05;98799.67;130029;1089;113950;-58
2021/08/07 08:01:34;;;;;;;3.28;2.60;;;;;;;21.23;58.20;98807.64;130299;1090;22577;-59
2021/08/07 08:04:04;;;;;;;5.53;2.50;;;;;;;21.25;58.79;98802.56;130161;1089;22528;-59
2021/08/07 08:06:33;;;;;;;6.38;3.65;;;;;;;21.26;58.91;98799.45;130023;1090;113765;-58
2021/08/07 08:09:02;;;;;;;4.08;2.73;;;;;;;21.28;59.47;98804.65;130117;1090;23344;-58
2021/08/07 08:11:34;;;;;;;3.35;2.93;;;;;;;21.29;58.00;98809.04;130064;1090;114760;-59
2021/08/07 08:14:03;;;;;;;5.15;2.85;;;;;;;21.29;57.99;98806.27;130107;1089;22539;-58
2021/08/07 08:16:38;;;;;;;2.98;2.60;;;;;;;21.28;58.41;98810.20;130082;1089;114165;-59
2021/08/07 08:19:11;;;;;;;5.98;4.03;;;;;;;21.28;58.48;98805.46;130086;1090;22705;-58
2021/08/07 08:21:40;;;;;;;3.90;2.48;;;;;;;21.29;58.50;98796.00;130385;1088;22552;-59
2021/08/07 08:24:10;;;;;;;4.13;2.48;;;;;;;21.30;57.83;98800.38;130070;1089;114156;-58
2021/08/07 08:26:40;;;;;;;2.98;2.65;;;;;;;21.35;58.56;98793.81;130054;1090;22560;-59
2021/08/07 08:29:10;;;;;;;3.30;2.15;;;;;;;21.38;58.13;98807.77;129935;1090;114089;-59
2021/08/07 08:31:40;;;;;;;5.75;3.30;;;;;;;21.40;57.51;98805.45;130066;1092;22570;-58
2021/08/07 08:34:09;;;;;;;10.38;5.23;;;;;;;21.42;57.26;98800.38;130053;1090;22946;-58
2021/08/07 08:36:39;;;;;;;10.20;5.23;;;;;;;21.44;56.97;98800.84;129938;1089;114695;-59
2021/08/07 08:39:09;;;;;;;7.85;4.55;;;;;;;21.45;57.36;98813.55;130030;1090;22645;-58
2021/08/07 08:41:38;;;;;;;6.25;3.80;;;;;;;21.48;57.81;98810.09;129956;1090;114062;-58
2021/08/07 08:44:07;;;;;;;6.80;2.58;;;;;;;21.52;58.30;98799.91;130057;1090;22570;-59
2021/08/07 08:46:36;;;;;;;8.45;4.95;;;;;;;21.58;57.47;98803.25;129939;1090;113902;-59
2021/08/07 08:49:06;;;;;;;12.98;4.80;;;;;;;21.60;56.80;98811.23;129988;1090;22573;-59
2021/08/07 08:51:36;;;;;;;7.53;3.28;;;;;;;21.63;56.95;98811.34;130037;1090;22716;-58
2021/08/07 08:54:06;;;;;;;5.40;3.00;;;;;;;21.65;57.55;98814.55;129973;1090;113833;-59
2021/08/07 08:56:36;;;;;;;6.58;2.58;;;;;;;21.70;57.05;98813.52;130049;1090;22542;-58
2021/08/07 08:59:09;;;;;;;2.83;2.48;;;;;;;21.70;56.43;98799.66;129962;1090;114652;-59
2021/08/07 09:01:39;;;;;;;2.83;2.28;;;;;;;21.67;56.73;98792.84;130062;1090;22531;-59
2021/08/07 09:04:10;;;;;;;3.73;2.73;;;;;;;21.67;57.45;98794.80;130107;1090;22586;-59
2021/08/07 09:06:40;;;;;;;4.20;2.20;;;;;;;21.70;57.39;98806.01;129957;1089;113753;-59
2021/08/07 09:09:11;;;;;;;3.75;2.50;;;;;;;21.73;56.14;98810.86;130440;1090;22538;-59
2021/08/07 09:11:56;;;;;;;5.30;2.10;;;;;;;21.74;56.45;98811.67;130074;1090;113160;-59
2021/08/07 09:14:30;;;;;;;2.93;2.30;;;;;;;21.72;56.37;98809.25;130098;1089;22546;-59
2021/08/07 09:17:17;;;;;;;2.20;1.85;;;;;;;21.72;56.83;98820.34;130067;1090;114305;-58
2021/08/07 09:19:59;;;;;;;1.68;1.40;;;;;;;21.74;56.39;98804.16;130223;1089;22656;-59
2021/08/07 09:22:31;;;;;;;2.93;1.50;;;;;;;21.77;56.66;98806.24;129948;1090;113982;-59
2021/08/07 09:25:07;;;;;;;3.08;1.85;;;;;;;21.81;56.52;98800.78;130044;1090;22594;-58
2021/08/07 09:27:47;;;;;;;2.85;1.68;;;;;;;21.86;56.71;98808.88;130040;1091;23607;-59
2021/08/07 09:30:18;;;;;;;3.38;1.63;;;;;;;21.89;56.14;98805.41;129996;1090;114611;-59
2021/08/07 09:32:55;;;;;;;3.60;2.55;;;;;;;21.92;56.88;98803.90;130074;1090;22599;-59
2021/08/07 09:35:27;;;;;;;5.95;3.33;;;;;;;21.96;57.59;98808.38;129950;1090;113922;-58
2021/08/07 09:38:07;;;;;;;4.38;1.90;;;;;;;22.01;56.24;98812.91;130070;1090;22553;-59
2021/08/07 09:40:42;;;;;;;1.93;1.70;;;;;;;22.03;55.58;98808.63;129954;1090;114213;-58
2021/08/07 09:43:13;;;;;;;2.18;1.63;;;;;;;22.05;55.46;98811.88;130081;1090;23814;-58
2021/08/07 09:45:44;;;;;;;6.50;2.05;;;;;;;22.08;55.22;98827.80;130009;1090;22559;-59
2021/08/07 09:48:16;;;;;;;1.30;1.20;;;;;;;22.09;55.63;98823.05;129947;1090;114249;-59
2021/08/07 09:50:45;;;;;;;2.03;1.78;;;;;;;22.11;55.74;98816.00;130108;1090;23157;-58
2021/08/07 09:53:20;;;;;;;8.40;1.50;;;;;;;22.16;55.84;98829.63;129918;1090;113821;-58
2021/08/07 09:56:04;;;;;;;2.25;1.60;;;;;;;22.17;54.65;98825.70;130055;1090;22575;-59
2021/08/07 09:58:40;;;;;;;2.23;1.88;;;;;;;22.17;55.29;98834.03;129928;1090;113864;-59
2021/08/07 10:01:27;;;;;;;3.60;1.53;;;;;;;22.18;55.67;98826.52;130159;1088;22546;-59
2021/08/07 10:04:05;;;;;;;1.80;1.10;;;;;;;22.22;55.12;98841.28;130160;1090;23396;-59
2021/08/07 10:06:36;;;;;;;5.05;1.48;;;;;;;22.25;55.10;98839.77;130088;1089;113884;-58
2021/08/07 10:09:07;;;;;;;7.60;1.83;;;;;;;22.29;55.36;98849.83;130069;1090;22671;-59
2021/08/07 10:12:11;;;;;;;2.55;1.65;;;;;;;22.33;54.88;98845.20;130049;1089;113830;-59
2021/08/07 10:14:44;;;;;;;1.93;1.60;;;;;;;22.34;53.72;98849.59;130156;1090;22687;-59
2021/08/07 10:17:17;;;;;;;3.78;1.48;;;;;;;22.30;53.79;98854.22;130065;1090;113906;-59
2021/08/07 10:19:51;;;;;;;4.10;1.63;;;;;;;22.33;53.90;98855.48;130261;1090;22540;-58
2021/08/07 10:22:21;;;;;;;5.73;1.68;;;;;;;22.33;53.93;98859.08;130168;1090;23552;-58
2021/08/07 10:24:54;;;;;;;1.40;1.25;;;;;;;22.35;54.08;98861.50;130069;1090;114073;-59
2021/08/07 10:27:27;;;;;;;2.05;1.48;;;;;;;22.35;54.15;98858.73;130140;1090;23361;-59
2021/08/07 10:30:00;;;;;;;2.30;1.25;;;;;;;22.35;53.69;98867.86;130026;1090;113937;-59
2021/08/07 10:32:31;;;;;;;2.53;1.60;;;;;;;22.33;53.71;98867.41;130146;1090;22576;-59
2021/08/07 10:35:00;;;;;;;1.33;1.20;;;;;;;22.31;53.82;98880.01;129961;1090;113976;-59
2021/08/07 10:37:30;;;;;;;1.75;1.40;;;;;;;22.30;53.59;98870.06;130163;1089;22579;-59
2021/08/07 10:40:00;;;;;;;1.78;1.40;;;;;;;22.30;53.24;98875.61;130166;1090;22636;-59
2021/08/07 10:42:31;;;;;;;1.33;1.23;;;;;;;22.29;53.13;98874.80;130053;1090;114015;-59
2021/08/07 10:45:01;;;;;;;6.13;1.40;;;;;;;22.32;53.26;98873.30;130095;1090;22587;-58
2021/08/07 10:47:39;;;;;;;3.55;1.58;;;;;;;22.36;53.99;98883.33;130070;1088;114070;-59
2021/08/07 10:50:32;;;;;;;3.03;1.60;;;;;;;22.42;53.75;98886.67;130111;1090;22654;-59
2021/08/07 10:53:25;;;;;;;1.38;1.28;;;;;;;22.45;53.02;98885.98;130034;1090;114494;-59
2021/08/07 10:55:57;;;;;;;3.43;1.58;;;;;;;22.46;52.62;98880.08;130319;1089;23124;-58
2021/08/07 10:58:36;;;;;;;3.65;1.50;;;;;;;22.47;52.62;98884.47;130354;1090;22521;-59
2021/08/07 11:01:25;;;;;;;1.38;1.10;;;;;;;22.48;52.51;98891.64;130338;1090;113705;-59
2021/08/07 11:04:01;;;;;;;2.48;1.40;;;;;;;22.49;52.91;98871.05;130109;1090;23648;-58
2021/08/07 11:06:55;;;;;;;2.05;1.60;;;;;;;22.54;52.60;98878.30;130297;1090;113759;-58
2021/08/07 11:09:31;;;;;;;1.70;1.25;;;;;;;22.60;53.07;98884.42;130401;1090;22593;-59
2021/08/07 11:12:07;;;;;;;3.78;1.50;;;;;;;22.65;52.70;98890.52;129990;1090;114836;-59
2021/08/07 11:14:52;;;;;;;2.65;1.20;;;;;;;22.72;52.61;98903.81;130369;1089;22561;-58
2021/08/07 11:17:21;;;;;;;2.30;1.58;;;;;;;22.72;52.21;98893.51;130212;1089;114351;-62
2021/08/07 11:20:05;;;;;;;3.05;1.73;;;;;;;22.76;52.70;98896.39;130168;1090;22622;-59
2021/08/07 11:22:36;;;;;;;4.83;1.80;;;;;;;22.79;52.61;98890.98;130384;1090;22549;-59
2021/08/07 11:25:17;;;;;;;0.95;0.95;;;;;;;22.81;51.45;98898.93;130199;1089;113373;-59
2021/08/07 11:27:46;;;;;;;1.88;1.28;;;;;;;22.79;51.05;98890.98;130314;1089;22567;-59
2021/08/07 11:30:21;;;;;;;4.50;1.60;;;;;;;22.78;52.45;98896.88;130270;1088;114323;-59
2021/08/07 11:32:57;;;;;;;2.58;1.53;;;;;;;22.78;52.22;98889.36;130120;1090;23995;-59
2021/08/07 11:35:32;;;;;;;1.63;1.18;;;;;;;22.87;51.48;98897.52;130256;1090;115062;-59
2021/08/07 11:40:47;;;;;;;3.50;1.25;;;;;;;22.90;51.15;98888.48;130330;1089;23202;-58
2021/08/07 11:43:22;;;;;;;3.85;1.70;;;;;;;22.89;51.11;98884.90;130284;1088;113840;-59
2021/08/07 11:45:54;;;;;;;3.55;1.30;;;;;;;22.87;51.34;98892.78;130135;1088;23417;-59